createdAt,value
2022-09-26T00:00:21.749Z,15.08
2022-09-26T00:01:21.777Z,15.13
2022-09-26T00:02:21.782Z,15.05
2022-09-26T00:03:21.721Z,15.11
2022-09-26T00:04:23.635Z,15.03
2022-09-26T00:05:21.699Z,15.05
2022-09-26T00:06:21.699Z,15.05
2022-09-26T00:07:21.676Z,15.06
2022-09-26T00:08:21.666Z,15.11
2022-09-26T00:09:21.658Z,15.11
2022-09-26T00:10:21.649Z,15.11
2022-09-26T00:11:21.645Z,15.06
2022-09-26T00:12:21.619Z,15.01
2022-09-26T00:13:21.630Z,15.06
2022-09-26T00:14:21.600Z,15.02
2022-09-26T00:15:21.592Z,15.02
2022-09-26T00:16:21.626Z,15.09
2022-09-26T00:17:21.569Z,15.02
2022-09-26T00:18:21.554Z,15.02
2022-09-26T00:19:21.546Z,15.01
2022-09-26T00:20:21.534Z,15.02
2022-09-26T00:21:21.575Z,14.95
2022-09-26T00:22:21.510Z,14.93
2022-09-26T00:23:21.501Z,15.02
2022-09-26T00:24:21.500Z,15.02
2022-09-26T00:25:21.480Z,15.06
2022-09-26T00:26:21.480Z,15.03
2022-09-26T00:27:21.460Z,14.93
2022-09-26T00:28:21.446Z,14.99
2022-09-26T00:29:21.459Z,15.01
2022-09-26T00:30:21.504Z,14.91
2022-09-26T00:31:21.587Z,14.91
2022-09-26T00:32:21.404Z,14.94
2022-09-26T00:33:21.394Z,14.91
2022-09-26T00:34:21.382Z,14.95
2022-09-26T00:35:21.372Z,14.98
2022-09-26T00:36:29.672Z,14.91
2022-09-26T00:37:22.350Z,14.91
2022-09-26T00:38:21.347Z,14.83
2022-09-26T00:39:21.329Z,14.83
2022-09-26T00:40:21.504Z,14.81
2022-09-26T00:41:21.330Z,14.86
2022-09-26T00:42:21.295Z,14.75
2022-09-26T00:43:21.285Z,14.86
2022-09-26T00:44:21.274Z,14.74
2022-09-26T00:45:21.279Z,14.88
2022-09-26T00:46:21.285Z,14.78
2022-09-26T00:47:21.258Z,14.81
2022-09-26T00:48:21.230Z,14.84
2022-09-26T00:49:21.222Z,14.80
2022-09-26T00:50:21.208Z,14.95
2022-09-26T00:51:21.201Z,14.88
2022-09-26T00:52:21.199Z,14.93
2022-09-26T00:53:21.176Z,14.94
2022-09-26T00:54:21.164Z,14.83
2022-09-26T00:55:21.156Z,14.81
2022-09-26T00:56:21.143Z,14.86
2022-09-26T00:57:21.146Z,14.81
2022-09-26T00:58:21.125Z,14.84
2022-09-26T00:59:21.112Z,14.90
2022-09-26T01:00:21.100Z,14.80
2022-09-26T01:01:21.210Z,14.83
2022-09-26T01:02:21.301Z,14.84
2022-09-26T01:03:21.068Z,14.86
2022-09-26T01:04:21.058Z,14.84
2022-09-26T01:05:21.047Z,14.87
2022-09-26T01:06:21.036Z,14.80
2022-09-26T01:07:21.036Z,14.91
2022-09-26T01:08:21.018Z,14.84
2022-09-26T01:09:21.007Z,14.81
2022-09-26T01:10:20.994Z,14.87
2022-09-26T01:11:20.983Z,14.81
2022-09-26T01:12:20.983Z,14.90
2022-09-26T01:13:20.961Z,14.87
2022-09-26T01:14:20.954Z,14.81
2022-09-26T01:15:20.949Z,14.83
2022-09-26T01:16:21.004Z,14.84
2022-09-26T01:17:20.947Z,14.80
2022-09-26T01:18:20.905Z,14.81
2022-09-26T01:19:20.895Z,14.78
2022-09-26T01:20:20.898Z,14.80
2022-09-26T01:21:20.883Z,14.81
2022-09-26T01:22:20.884Z,14.81
2022-09-26T01:23:20.853Z,14.75
2022-09-26T01:24:20.874Z,14.81
2022-09-26T01:25:20.829Z,14.78
2022-09-26T01:26:20.884Z,14.78
2022-09-26T01:27:20.811Z,14.75
2022-09-26T01:28:20.819Z,14.72
2022-09-26T01:29:20.811Z,14.69
2022-09-26T01:30:20.776Z,14.71
2022-09-26T01:31:20.858Z,14.75
2022-09-26T01:32:20.764Z,14.71
2022-09-26T01:33:20.763Z,14.71
2022-09-26T01:34:20.732Z,14.75
2022-09-26T01:35:20.738Z,14.68
2022-09-26T01:36:20.739Z,14.74
2022-09-26T01:37:20.701Z,14.75
2022-09-26T01:38:20.711Z,14.74
2022-09-26T01:39:20.678Z,14.81
2022-09-26T01:40:20.701Z,14.71
2022-09-26T01:41:20.669Z,14.72
2022-09-26T01:42:20.646Z,14.75
2022-09-26T01:43:20.644Z,14.75
2022-09-26T01:44:20.648Z,14.72
2022-09-26T01:45:20.615Z,14.74
2022-09-26T01:46:20.662Z,14.72
2022-09-26T01:47:20.625Z,14.65
2022-09-26T01:48:20.588Z,14.64
2022-09-26T01:49:20.591Z,14.75
2022-09-26T01:50:20.584Z,14.69
2022-09-26T01:51:20.566Z,14.67
2022-09-26T01:52:20.541Z,14.69
2022-09-26T01:53:20.530Z,14.68
2022-09-26T01:54:20.514Z,14.61
2022-09-26T01:55:20.506Z,14.71
2022-09-26T01:56:20.535Z,14.61
2022-09-26T01:57:20.486Z,14.61
2022-09-26T01:58:20.483Z,14.62
2022-09-26T01:59:20.467Z,14.68
2022-09-26T02:00:20.453Z,14.74
2022-09-26T02:01:20.482Z,14.68
2022-09-26T02:02:20.488Z,14.64
2022-09-26T02:03:20.434Z,14.69
2022-09-26T02:04:20.408Z,14.65
2022-09-26T02:05:20.457Z,14.74
2022-09-26T02:06:20.396Z,14.69
2022-09-26T02:07:20.376Z,14.74
2022-09-26T02:08:20.362Z,14.67
2022-09-26T02:09:20.354Z,14.65
2022-09-26T02:10:20.344Z,14.71
2022-09-26T02:11:20.346Z,14.60
2022-09-26T02:12:20.320Z,14.69
2022-09-26T02:13:20.312Z,14.64
2022-09-26T02:14:20.301Z,14.67
2022-09-26T02:15:20.295Z,14.64
2022-09-26T02:16:20.339Z,14.67
2022-09-26T02:17:20.267Z,14.61
2022-09-26T02:18:20.258Z,14.72
2022-09-26T02:19:20.251Z,14.65
2022-09-26T02:20:20.237Z,14.71
2022-09-26T02:21:20.254Z,14.68
2022-09-26T02:22:20.213Z,14.72
2022-09-26T02:23:20.206Z,14.62
2022-09-26T02:24:20.191Z,14.62
2022-09-26T02:25:20.182Z,14.65
2022-09-26T02:26:20.179Z,14.64
2022-09-26T02:27:20.160Z,14.61
2022-09-26T02:28:20.146Z,14.75
2022-09-26T02:29:20.155Z,14.64
2022-09-26T02:30:20.125Z,14.64
2022-09-26T02:31:20.185Z,14.64
2022-09-26T02:32:20.194Z,14.61
2022-09-26T02:33:20.092Z,14.62
2022-09-26T02:34:20.083Z,14.65
2022-09-26T02:35:20.072Z,14.64
2022-09-26T02:36:20.069Z,14.64
2022-09-26T02:37:20.069Z,14.64
2022-09-26T02:38:20.039Z,14.62
2022-09-26T02:39:20.029Z,14.61
2022-09-26T02:40:20.061Z,14.65
2022-09-26T02:41:20.023Z,14.71
2022-09-26T02:42:19.994Z,14.60
2022-09-26T02:43:19.986Z,14.60
2022-09-26T02:44:19.975Z,14.69
2022-09-26T02:45:19.963Z,14.68
2022-09-26T02:46:20.010Z,14.61
2022-09-26T02:47:19.944Z,14.71
2022-09-26T02:48:19.929Z,14.71
2022-09-26T02:49:19.921Z,14.64
2022-09-26T02:50:19.908Z,14.71
2022-09-26T02:51:19.913Z,14.61
2022-09-26T02:52:19.890Z,14.69
2022-09-26T02:53:19.898Z,14.65
2022-09-26T02:54:19.865Z,14.68
2022-09-26T02:55:19.859Z,14.62
2022-09-26T02:56:19.855Z,14.72
2022-09-26T02:57:19.833Z,14.69
2022-09-26T02:58:19.823Z,14.67
2022-09-26T02:59:19.848Z,14.71
2022-09-26T03:00:19.804Z,14.71
2022-09-26T03:01:20.016Z,14.71
2022-09-26T03:02:19.779Z,14.62
2022-09-26T03:03:19.771Z,14.65
2022-09-26T03:04:19.808Z,14.64
2022-09-26T03:05:19.752Z,14.62
2022-09-26T03:06:19.745Z,14.69
2022-09-26T03:07:19.727Z,14.67
2022-09-26T03:08:19.713Z,14.68
2022-09-26T03:09:19.724Z,14.68
2022-09-26T03:10:19.693Z,14.68
2022-09-26T03:11:19.693Z,14.69
2022-09-26T03:12:19.670Z,14.65
2022-09-26T03:13:19.661Z,14.61
2022-09-26T03:14:19.651Z,14.69
2022-09-26T03:15:19.642Z,14.57
2022-09-26T03:16:19.740Z,14.68
2022-09-26T03:17:19.618Z,14.68
2022-09-26T03:18:19.612Z,14.68
2022-09-26T03:19:19.596Z,14.74
2022-09-26T03:20:19.593Z,14.64
2022-09-26T03:21:19.575Z,14.64
2022-09-26T03:22:19.573Z,14.69
2022-09-26T03:23:19.553Z,14.62
2022-09-26T03:24:19.541Z,14.67
2022-09-26T03:25:19.548Z,14.67
2022-09-26T03:26:19.530Z,14.62
2022-09-26T03:27:19.513Z,14.68
2022-09-26T03:28:19.498Z,14.60
2022-09-26T03:29:19.487Z,14.71
2022-09-26T03:30:19.487Z,14.69
2022-09-26T03:31:19.536Z,14.67
2022-09-26T03:32:19.453Z,14.69
2022-09-26T03:33:19.448Z,14.65
2022-09-26T03:34:19.431Z,14.64
2022-09-26T03:35:19.422Z,14.64
2022-09-26T03:36:19.422Z,14.67
2022-09-26T03:37:19.402Z,14.64
2022-09-26T03:38:19.389Z,14.62
2022-09-26T03:39:19.381Z,14.64
2022-09-26T03:40:19.450Z,14.69
2022-09-26T03:41:19.410Z,14.61
2022-09-26T03:42:19.351Z,14.62
2022-09-26T03:43:19.336Z,14.64
2022-09-26T03:44:19.325Z,14.67
2022-09-26T03:45:19.314Z,14.69
2022-09-26T03:46:19.388Z,14.64
2022-09-26T03:47:19.302Z,14.64
2022-09-26T03:48:19.281Z,14.62
2022-09-26T03:49:19.271Z,14.67
2022-09-26T03:50:19.261Z,14.52
2022-09-26T03:51:19.250Z,14.61
2022-09-26T03:52:19.255Z,14.64
2022-09-26T03:53:19.229Z,14.64
2022-09-26T03:54:19.219Z,14.71
2022-09-26T03:55:19.205Z,14.62
2022-09-26T03:56:19.195Z,14.61
2022-09-26T03:57:19.211Z,14.72
2022-09-26T03:58:19.174Z,14.67
2022-09-26T03:59:19.160Z,14.64
2022-09-26T04:00:19.153Z,14.56
2022-09-26T04:01:19.246Z,14.60
2022-09-26T04:02:19.205Z,14.68
2022-09-26T04:03:19.119Z,14.69
2022-09-26T04:04:19.110Z,14.69
2022-09-26T04:05:19.095Z,14.65
2022-09-26T04:06:19.087Z,14.65
2022-09-26T04:07:19.089Z,14.67
2022-09-26T04:08:19.082Z,14.68
2022-09-26T04:09:19.343Z,14.68
2022-09-26T04:10:19.045Z,14.67
2022-09-26T04:11:19.033Z,14.64
2022-09-26T04:12:19.033Z,14.64
2022-09-26T04:13:40.033Z,14.64
2022-09-26T04:14:20.039Z,14.65
2022-09-26T04:15:18.988Z,14.67
2022-09-26T04:16:19.057Z,14.67
2022-09-26T04:17:18.980Z,14.62
2022-09-26T04:18:18.958Z,14.64
2022-09-26T04:19:18.946Z,14.68
2022-09-26T04:20:18.936Z,14.61
2022-09-26T04:21:18.925Z,14.65
2022-09-26T04:22:18.923Z,14.61
2022-09-26T04:23:18.902Z,14.61
2022-09-26T04:24:18.893Z,14.60
2022-09-26T04:25:18.880Z,14.53
2022-09-26T04:26:23.295Z,14.67
2022-09-26T04:27:18.870Z,14.67
2022-09-26T04:28:18.848Z,14.54
2022-09-26T04:29:18.854Z,14.50
2022-09-26T04:30:18.830Z,14.54
2022-09-26T04:31:18.882Z,14.50
2022-09-26T04:32:18.814Z,14.53
2022-09-26T04:33:18.793Z,14.46
2022-09-26T04:34:22.340Z,14.46
2022-09-26T04:35:19.770Z,14.46
2022-09-26T04:36:18.764Z,14.50
2022-09-26T04:37:18.760Z,14.43
2022-09-26T04:38:18.754Z,14.37
2022-09-26T04:39:18.727Z,14.39
2022-09-26T04:40:18.750Z,14.34
2022-09-26T04:41:18.706Z,14.34
2022-09-26T04:42:18.713Z,14.31
2022-09-26T04:43:18.688Z,14.35
2022-09-26T04:44:18.675Z,14.32
2022-09-26T04:45:18.766Z,14.39
2022-09-26T04:46:21.839Z,14.29
2022-09-26T04:47:19.648Z,14.19
2022-09-26T04:48:18.632Z,14.17
2022-09-26T04:49:18.620Z,14.25
2022-09-26T04:50:18.610Z,14.29
2022-09-26T04:51:18.597Z,14.27
2022-09-26T04:52:18.602Z,14.19
2022-09-26T04:53:18.575Z,14.17
2022-09-26T04:54:18.567Z,14.20
2022-09-26T04:55:18.588Z,14.20
2022-09-26T04:56:18.544Z,14.27
2022-09-26T04:57:19.874Z,14.28
2022-09-26T04:58:18.526Z,14.25
2022-09-26T04:59:18.513Z,14.28
2022-09-26T05:00:18.501Z,14.27
2022-09-26T05:01:18.619Z,14.25
2022-09-26T05:02:18.552Z,14.16
2022-09-26T05:03:18.466Z,14.16
2022-09-26T05:04:18.462Z,14.25
2022-09-26T05:05:18.445Z,14.25
2022-09-26T05:06:18.458Z,14.25
2022-09-26T05:07:18.426Z,14.20
2022-09-26T05:08:18.445Z,14.17
2022-09-26T05:09:18.405Z,14.21
2022-09-26T05:10:18.393Z,14.17
2022-09-26T05:11:18.399Z,14.14
2022-09-26T05:12:18.370Z,14.19
2022-09-26T05:13:18.357Z,14.10
2022-09-26T05:14:18.370Z,14.16
2022-09-26T05:15:18.338Z,14.17
2022-09-26T05:16:18.415Z,14.12
2022-09-26T05:17:33.262Z,14.12
2022-09-26T05:18:18.306Z,14.07
2022-09-26T05:19:18.292Z,14.06
2022-09-26T05:20:18.284Z,14.10
2022-09-26T05:21:18.281Z,14.09
2022-09-26T05:22:18.329Z,14.12
2022-09-26T05:23:18.250Z,14.17
2022-09-26T05:24:18.256Z,14.02
2022-09-26T05:25:18.229Z,14.19
2022-09-26T05:26:18.229Z,14.19
2022-09-26T05:27:18.213Z,14.14
2022-09-26T05:28:18.200Z,14.19
2022-09-26T05:29:18.270Z,14.27
2022-09-26T05:30:18.179Z,14.27
2022-09-26T05:31:18.261Z,14.27
2022-09-26T05:32:18.153Z,14.24
2022-09-26T05:33:18.159Z,14.42
2022-09-26T05:34:20.016Z,14.37
2022-09-26T05:35:18.124Z,14.35
2022-09-26T05:36:18.129Z,14.38
2022-09-26T05:37:18.100Z,14.34
2022-09-26T05:38:18.090Z,14.35
2022-09-26T05:39:18.076Z,14.34
2022-09-26T05:40:18.156Z,14.43
2022-09-26T05:41:18.067Z,14.42
2022-09-26T05:42:18.046Z,14.46
2022-09-26T05:43:18.034Z,14.42
2022-09-26T05:44:18.023Z,14.49
2022-09-26T05:45:18.013Z,14.52
2022-09-26T05:46:18.044Z,14.50
2022-09-26T05:47:17.988Z,14.62
2022-09-26T05:48:17.979Z,14.57
2022-09-26T05:49:18.014Z,14.64
2022-09-26T05:50:17.961Z,14.67
2022-09-26T05:51:17.976Z,14.74
2022-09-26T05:52:17.940Z,14.64
2022-09-26T05:53:17.929Z,14.60
2022-09-26T05:54:17.926Z,14.69
2022-09-26T05:55:17.902Z,14.74
2022-09-26T05:56:19.245Z,14.74
2022-09-26T05:57:17.880Z,14.72
2022-09-26T05:58:17.875Z,14.80
2022-09-26T05:59:17.860Z,14.75
2022-09-26T06:00:17.850Z,14.86
2022-09-26T06:01:17.995Z,14.88
2022-09-26T06:02:20.905Z,14.98
2022-09-26T06:03:17.828Z,14.95
2022-09-26T06:04:17.807Z,15.09
2022-09-26T06:05:17.813Z,15.15
2022-09-26T06:06:17.794Z,15.19
2022-09-26T06:07:32.758Z,15.24
2022-09-26T06:08:17.761Z,15.31
2022-09-26T06:09:17.750Z,15.45
2022-09-26T06:10:17.757Z,15.59
2022-09-26T06:11:17.736Z,15.72
2022-09-26T06:12:17.727Z,15.81
2022-09-26T06:13:17.706Z,15.99
2022-09-26T06:14:17.698Z,16.09
2022-09-26T06:15:17.690Z,16.23
2022-09-26T06:16:17.700Z,16.34
2022-09-26T06:17:17.661Z,16.48
2022-09-26T06:18:20.268Z,16.63
2022-09-26T06:19:22.176Z,16.75
2022-09-26T06:20:18.631Z,16.85
2022-09-26T06:21:17.740Z,16.88
2022-09-26T06:22:17.610Z,16.99
2022-09-26T06:23:17.598Z,17.07
2022-09-26T06:24:17.588Z,17.13
2022-09-26T06:25:17.588Z,17.30
2022-09-26T06:26:17.579Z,17.40
2022-09-26T06:27:17.583Z,17.62
2022-09-26T06:28:17.544Z,17.84
2022-09-26T06:29:17.538Z,18.04
2022-09-26T06:30:17.539Z,18.19
2022-09-26T06:31:17.570Z,18.34
2022-09-26T06:32:17.535Z,18.49
2022-09-26T06:33:17.491Z,18.50
2022-09-26T06:34:17.499Z,18.72
2022-09-26T06:35:17.482Z,18.68
2022-09-26T06:36:17.485Z,18.72
2022-09-26T06:37:17.552Z,18.77
2022-09-26T06:38:17.439Z,18.97
2022-09-26T06:39:17.424Z,19.23
2022-09-26T06:40:17.590Z,19.35
2022-09-26T06:41:17.417Z,19.50
2022-09-26T06:42:17.394Z,19.50
2022-09-26T06:43:17.382Z,19.50
2022-09-26T06:44:17.377Z,19.57
2022-09-26T06:45:17.360Z,19.73
2022-09-26T06:46:17.451Z,19.86
2022-09-26T06:47:17.542Z,20.12
2022-09-26T06:48:19.935Z,20.10
2022-09-26T06:49:18.317Z,20.10
2022-09-26T06:50:17.335Z,20.23
2022-09-26T06:51:17.313Z,20.39
2022-09-26T06:52:17.320Z,20.50
2022-09-26T06:53:17.385Z,20.62
2022-09-26T06:54:17.267Z,20.69
2022-09-26T06:55:17.256Z,20.89
2022-09-26T06:56:17.252Z,20.99
2022-09-26T06:57:17.229Z,21.14
2022-09-26T06:58:17.258Z,21.38
2022-09-26T06:59:17.211Z,21.53
2022-09-26T07:00:17.199Z,21.56
2022-09-26T07:01:17.384Z,21.67
2022-09-26T07:02:17.378Z,21.66
2022-09-26T07:03:17.165Z,21.71
2022-09-26T07:04:17.157Z,22.06
2022-09-26T07:05:17.145Z,22.28
2022-09-26T07:06:17.153Z,22.43
2022-09-26T07:07:17.138Z,22.50
2022-09-26T07:08:17.115Z,22.59
2022-09-26T07:09:17.687Z,22.64
2022-09-26T07:10:17.090Z,22.68
2022-09-26T07:12:18.070Z,22.77
2022-09-26T07:13:17.078Z,22.75
2022-09-26T07:14:17.079Z,22.52
2022-09-26T07:15:17.050Z,22.29
2022-09-26T07:16:17.046Z,22.35
2022-09-26T07:17:17.034Z,22.34
2022-09-26T07:18:17.010Z,22.32
2022-09-26T07:19:17.008Z,22.37
2022-09-26T07:20:17.022Z,22.83
2022-09-26T07:21:16.972Z,22.93
2022-09-26T07:22:16.964Z,22.87
2022-09-26T07:23:16.961Z,22.83
2022-09-26T07:24:16.941Z,22.71
2022-09-26T07:25:16.962Z,22.92
2022-09-26T07:26:16.921Z,22.96
2022-09-26T07:27:16.910Z,23.17
2022-09-26T07:28:16.899Z,23.27
2022-09-26T07:29:16.889Z,23.39
2022-09-26T07:30:16.893Z,23.57
2022-09-26T07:31:16.894Z,23.70
2022-09-26T07:32:16.869Z,23.94
2022-09-26T07:33:16.847Z,24.12
2022-09-26T07:34:18.621Z,24.42
2022-09-26T07:35:16.856Z,24.53
2022-09-26T07:36:16.815Z,24.24
2022-09-26T07:37:16.804Z,24.04
2022-09-26T07:38:16.795Z,23.87
2022-09-26T07:39:16.908Z,24.05
2022-09-26T07:40:16.855Z,24.02
2022-09-26T07:41:16.781Z,24.17
2022-09-26T07:42:16.755Z,24.41
2022-09-26T07:43:21.247Z,24.54
2022-09-26T07:45:27.956Z,24.87
2022-09-26T07:46:17.776Z,25.09
2022-09-26T07:47:16.697Z,25.30
2022-09-26T07:48:16.691Z,25.44
2022-09-26T07:49:16.679Z,25.53
2022-09-26T07:50:16.739Z,25.64
2022-09-26T07:51:16.662Z,26.05
2022-09-26T07:52:16.650Z,26.49
2022-09-26T07:53:16.637Z,26.61
2022-09-26T07:54:16.630Z,26.43
2022-09-26T07:55:16.631Z,26.59
2022-09-26T07:56:16.612Z,26.72
2022-09-26T07:57:16.620Z,26.87
2022-09-26T07:58:16.589Z,26.96
2022-09-26T07:59:16.578Z,26.81
2022-09-26T08:00:16.580Z,26.99
2022-09-26T08:01:16.614Z,27.04
2022-09-26T08:02:16.721Z,27.11
2022-09-26T08:03:16.655Z,27.17
2022-09-26T08:04:16.527Z,27.33
2022-09-26T08:05:16.580Z,27.58
2022-09-26T08:06:16.510Z,27.38
2022-09-26T08:07:16.507Z,27.14
2022-09-26T08:08:16.486Z,27.28
2022-09-26T08:09:16.591Z,27.43
2022-09-26T08:10:16.488Z,27.47
2022-09-26T08:11:16.459Z,27.61
2022-09-26T08:12:16.446Z,27.53
2022-09-26T08:13:16.454Z,27.26
2022-09-26T08:14:16.472Z,26.80
2022-09-26T08:15:16.433Z,26.59
2022-09-26T08:16:16.531Z,26.25
2022-09-26T08:17:16.420Z,25.94
2022-09-26T08:18:16.387Z,25.90
2022-09-26T08:19:16.376Z,25.59
2022-09-26T08:20:16.373Z,25.46
2022-09-26T08:21:16.357Z,25.35
2022-09-26T08:22:16.345Z,24.87
2022-09-26T08:23:16.337Z,24.67
2022-09-26T08:24:16.527Z,24.75
2022-09-26T08:25:16.328Z,24.64
2022-09-26T08:26:16.308Z,24.69
2022-09-26T08:27:16.295Z,24.68
2022-09-26T08:28:16.313Z,24.83
2022-09-26T08:29:16.295Z,25.07
2022-09-26T08:30:16.280Z,25.44
2022-09-26T08:31:16.310Z,25.72
2022-09-26T08:32:16.243Z,25.99
2022-09-26T08:33:16.236Z,26.29
2022-09-26T08:34:18.382Z,26.35
2022-09-26T08:35:16.233Z,26.04
2022-09-26T08:36:16.205Z,26.15
2022-09-26T08:37:16.196Z,26.17
2022-09-26T08:38:16.181Z,26.29
2022-09-26T08:39:16.305Z,26.27
2022-09-26T08:40:16.221Z,26.39
2022-09-26T08:41:16.154Z,26.42
2022-09-26T08:42:16.144Z,26.40
2022-09-26T08:43:16.137Z,26.44
2022-09-26T08:44:16.318Z,26.28
2022-09-26T08:45:16.142Z,26.42
2022-09-26T08:46:16.135Z,26.43
2022-09-26T08:47:16.094Z,26.06
2022-09-26T08:48:16.082Z,25.90
2022-09-26T08:49:16.086Z,25.72
2022-09-26T08:50:16.077Z,25.57
2022-09-26T08:51:16.052Z,25.34
2022-09-26T08:52:16.040Z,25.20
2022-09-26T08:53:16.032Z,25.02
2022-09-26T08:54:16.153Z,24.85
2022-09-26T08:55:16.023Z,24.77
2022-09-26T08:56:16.001Z,24.85
2022-09-26T08:57:15.992Z,24.98
2022-09-26T08:58:15.982Z,25.37
2022-09-26T08:59:15.971Z,25.59
2022-09-26T09:00:15.973Z,25.61
2022-09-26T09:01:16.097Z,25.34
2022-09-26T09:02:16.085Z,25.28
2022-09-26T09:03:16.049Z,24.85
2022-09-26T09:04:16.180Z,24.49
2022-09-26T09:05:15.924Z,24.56
2022-09-26T09:06:15.899Z,24.19
2022-09-26T09:07:15.887Z,24.04
2022-09-26T09:08:15.876Z,24.12
2022-09-26T09:09:15.869Z,23.80
2022-09-26T09:10:15.870Z,23.53
2022-09-26T09:11:15.850Z,23.27
2022-09-26T09:12:18.536Z,23.26
2022-09-26T09:13:15.827Z,23.17
2022-09-26T09:14:15.993Z,23.29
2022-09-26T09:15:25.340Z,23.45
2022-09-26T09:16:16.910Z,23.95
2022-09-26T09:17:15.819Z,24.47
2022-09-26T09:18:15.777Z,25.02
2022-09-26T09:19:15.796Z,25.31
2022-09-26T09:20:15.763Z,25.42
2022-09-26T09:21:15.743Z,25.97
2022-09-26T09:22:15.737Z,26.43
2022-09-26T09:23:15.724Z,26.61
2022-09-26T09:24:15.867Z,26.57
2022-09-26T09:25:15.714Z,26.43
2022-09-26T09:28:16.670Z,26.68
2022-09-26T09:29:18.976Z,27.17
2022-09-26T09:30:16.918Z,27.42
2022-09-26T09:31:15.736Z,27.42
2022-09-26T09:32:15.633Z,27.57
2022-09-26T09:33:15.650Z,27.94
2022-09-26T09:34:15.804Z,27.82
2022-09-26T09:35:15.644Z,27.32
2022-09-26T09:36:15.591Z,27.33
2022-09-26T09:37:15.583Z,27.33
2022-09-26T09:38:15.570Z,27.64
2022-09-26T09:39:15.561Z,27.71
2022-09-26T09:40:15.613Z,27.64
2022-09-26T09:41:15.548Z,26.83
2022-09-26T09:42:15.531Z,26.22
2022-09-26T09:43:15.523Z,25.68
2022-09-26T09:44:15.640Z,25.34
2022-09-26T09:45:15.506Z,25.13
2022-09-26T09:46:15.559Z,24.59
2022-09-26T09:47:15.562Z,24.63
2022-09-26T09:48:15.473Z,24.87
2022-09-26T09:49:15.535Z,24.95
2022-09-26T09:50:15.449Z,25.52
2022-09-26T09:51:15.445Z,25.89
2022-09-26T09:52:15.430Z,25.84
2022-09-26T09:53:15.422Z,26.27
2022-09-26T09:54:15.532Z,26.47
2022-09-26T09:55:15.401Z,26.43
2022-09-26T09:56:15.388Z,26.35
2022-09-26T09:57:15.381Z,26.20
2022-09-26T09:58:15.373Z,26.36
2022-09-26T09:59:15.371Z,26.62
2022-09-26T10:00:15.351Z,26.54
2022-09-26T10:01:15.340Z,26.72
2022-09-26T10:02:15.349Z,27.11
2022-09-26T10:03:15.411Z,27.53
2022-09-26T10:04:15.507Z,27.71
2022-09-26T10:05:15.322Z,27.79
2022-09-26T10:06:44.349Z,28.03
2022-09-26T10:07:16.281Z,28.07
2022-09-26T10:08:15.301Z,28.22
2022-09-26T10:09:35.559Z,28.48
2022-09-26T10:10:16.255Z,28.65
2022-09-26T10:11:15.244Z,28.69
2022-09-26T10:12:15.232Z,27.96
2022-09-26T10:13:15.233Z,27.33
2022-09-26T10:14:15.348Z,26.69
2022-09-26T10:15:15.203Z,26.39
2022-09-26T10:16:15.478Z,26.55
2022-09-26T10:17:15.183Z,26.98
2022-09-26T10:18:30.045Z,27.13
2022-09-26T10:19:16.174Z,27.20
2022-09-26T10:20:15.194Z,27.04
2022-09-26T10:21:15.165Z,27.04
2022-09-26T10:22:15.139Z,27.14
2022-09-26T10:23:15.125Z,27.10
2022-09-26T10:24:15.229Z,26.91
2022-09-26T10:25:15.104Z,26.52
2022-09-26T10:26:15.095Z,26.08
2022-09-26T10:27:15.095Z,25.54
2022-09-26T10:28:15.073Z,25.12
2022-09-26T10:29:15.079Z,24.69
2022-09-26T10:30:15.127Z,24.20
2022-09-26T10:31:15.082Z,23.86
2022-09-26T10:32:15.051Z,23.70
2022-09-26T10:33:15.025Z,23.47
2022-09-26T10:34:15.184Z,23.42
2022-09-26T10:35:18.829Z,23.11
2022-09-26T10:36:14.994Z,22.96
2022-09-26T10:37:15.006Z,22.75
2022-09-26T10:38:14.974Z,22.34
2022-09-26T10:39:14.978Z,22.28
2022-09-26T10:40:15.153Z,22.17
2022-09-26T10:41:14.946Z,22.01
2022-09-26T10:42:14.932Z,21.92
2022-09-26T10:43:14.960Z,21.81
2022-09-26T10:44:14.981Z,21.66
2022-09-26T10:45:14.902Z,21.51
2022-09-26T10:46:14.985Z,21.41
2022-09-26T10:47:14.886Z,21.29
2022-09-26T10:48:14.958Z,21.20
2022-09-26T10:49:14.860Z,21.14
2022-09-26T10:50:14.848Z,21.04
2022-09-26T10:51:14.838Z,20.93
2022-09-26T10:52:18.623Z,20.93
2022-09-26T10:53:14.848Z,20.81
2022-09-26T10:54:15.023Z,20.65
2022-09-26T10:55:14.800Z,20.54
2022-09-26T10:56:14.781Z,20.43
2022-09-26T10:57:14.782Z,20.46
2022-09-26T10:58:15.418Z,20.33
2022-09-26T10:59:14.753Z,20.35
2022-09-26T11:00:14.742Z,20.41
2022-09-26T11:01:14.776Z,20.21
2022-09-26T11:02:14.788Z,20.23
2022-09-26T11:03:14.765Z,20.18
2022-09-26T11:04:14.967Z,20.08
2022-09-26T11:05:14.686Z,20.16
2022-09-26T11:06:14.708Z,20.09
2022-09-26T11:07:14.663Z,19.97
2022-09-26T11:08:14.702Z,19.84
2022-09-26T11:09:14.677Z,19.84
2022-09-26T11:10:14.628Z,19.91
2022-09-26T11:11:14.638Z,19.78
2022-09-26T11:12:14.612Z,19.86
2022-09-26T11:13:14.616Z,19.78
2022-09-26T11:14:14.650Z,19.83
2022-09-26T11:15:14.576Z,19.83
2022-09-26T11:16:14.777Z,19.84
2022-09-26T11:17:14.555Z,19.79
2022-09-26T11:18:14.562Z,19.75
2022-09-26T11:19:14.596Z,19.80
2022-09-26T11:20:14.523Z,19.72
2022-09-26T11:21:28.215Z,19.65
2022-09-26T11:22:15.499Z,19.63
2022-09-26T11:23:14.503Z,19.65
2022-09-26T11:24:14.545Z,19.58
2022-09-26T11:25:14.489Z,19.50
2022-09-26T11:26:14.460Z,19.51
2022-09-26T11:27:14.453Z,19.48
2022-09-26T11:28:14.451Z,19.43
2022-09-26T11:29:14.685Z,19.48
2022-09-26T11:30:14.420Z,19.46
2022-09-26T11:31:14.527Z,19.53
2022-09-26T11:32:14.414Z,19.48
2022-09-26T11:33:14.401Z,19.57
2022-09-26T11:34:14.496Z,19.43
2022-09-26T11:35:14.391Z,19.53
2022-09-26T11:36:14.354Z,19.50
2022-09-26T11:37:14.346Z,19.54
2022-09-26T11:38:14.350Z,19.60
2022-09-26T11:39:14.454Z,19.51
2022-09-26T11:40:14.408Z,19.50
2022-09-26T11:41:14.329Z,19.51
2022-09-26T11:42:14.318Z,19.54
2022-09-26T11:43:14.307Z,19.60
2022-09-26T11:44:14.446Z,19.70
2022-09-26T11:45:14.263Z,19.66
2022-09-26T11:46:14.316Z,19.73
2022-09-26T11:47:14.244Z,19.66
2022-09-26T11:48:14.243Z,19.72
2022-09-26T11:49:14.225Z,19.79
2022-09-26T11:50:14.210Z,19.84
2022-09-26T11:51:14.210Z,19.91
2022-09-26T11:52:14.189Z,19.91
2022-09-26T11:53:14.192Z,19.94
2022-09-26T11:54:14.290Z,19.93
2022-09-26T11:55:14.158Z,20.03
2022-09-26T11:56:14.150Z,19.88
2022-09-26T11:57:14.158Z,19.80
2022-09-26T11:58:14.136Z,19.76
2022-09-26T11:59:14.116Z,19.65
2022-09-26T12:00:14.104Z,19.69
2022-09-26T12:01:14.096Z,19.65
2022-09-26T12:02:14.160Z,19.55
2022-09-26T12:03:14.238Z,19.58
2022-09-26T12:04:14.219Z,19.58
2022-09-26T12:05:14.071Z,19.57
2022-09-26T12:06:14.042Z,19.54
2022-09-26T12:07:14.031Z,19.50
2022-09-26T12:08:14.034Z,19.47
2022-09-26T12:09:14.010Z,19.53
2022-09-26T12:10:13.999Z,19.43
2022-09-26T12:11:13.990Z,19.43
2022-09-26T12:12:14.002Z,19.48
2022-09-26T12:13:14.044Z,19.51
2022-09-26T12:14:14.091Z,19.48
2022-09-26T12:15:13.955Z,19.54
2022-09-26T12:16:14.070Z,19.58
2022-09-26T12:17:13.928Z,19.55
2022-09-26T12:18:14.778Z,19.66
2022-09-26T12:19:16.432Z,19.72
2022-09-26T12:20:13.934Z,19.87
2022-09-26T12:21:13.881Z,19.80
2022-09-26T12:22:13.877Z,19.87
2022-09-26T12:23:13.950Z,19.79
2022-09-26T12:24:13.904Z,19.87
2022-09-26T12:25:19.269Z,19.87
2022-09-26T12:26:14.830Z,19.91
2022-09-26T12:27:13.833Z,19.88
2022-09-26T12:28:13.823Z,19.86
2022-09-26T12:29:13.817Z,19.87
2022-09-26T12:30:13.791Z,19.84
2022-09-26T12:31:18.727Z,19.86
2022-09-26T12:32:14.768Z,19.83
2022-09-26T12:33:13.768Z,19.79
2022-09-26T12:34:13.803Z,19.78
2022-09-26T12:35:13.736Z,19.87
2022-09-26T12:36:13.729Z,19.75
2022-09-26T12:37:13.744Z,19.78
2022-09-26T12:38:13.718Z,19.69
2022-09-26T12:39:13.817Z,19.69
2022-09-26T12:40:13.722Z,19.53
2022-09-26T12:41:13.671Z,19.61
2022-09-26T12:42:13.662Z,19.54
2022-09-26T12:43:13.660Z,19.55
2022-09-26T12:44:13.642Z,19.54
2022-09-26T12:45:13.647Z,19.57
2022-09-26T12:46:13.663Z,19.48
2022-09-26T12:47:13.608Z,19.47
2022-09-26T12:48:13.615Z,19.47
2022-09-26T12:49:13.594Z,19.57
2022-09-26T12:50:13.577Z,19.54
2022-09-26T12:51:13.608Z,19.54
2022-09-26T12:52:13.558Z,19.54
2022-09-26T12:53:13.556Z,19.51
2022-09-26T12:54:13.535Z,19.43
2022-09-26T12:55:13.523Z,19.47
2022-09-26T12:56:13.514Z,19.42